createdAt,value
2018-12-29T00:00:42.498Z,23.10
2018-12-29T00:03:12.378Z,22.97
2018-12-29T00:05:42.201Z,22.47
2018-12-29T00:08:12.070Z,22.20
2018-12-29T00:10:42.052Z,23.20
2018-12-29T00:13:11.747Z,21.83
2018-12-29T00:15:41.614Z,22.20
2018-12-29T00:18:11.284Z,23.03
2018-12-29T00:20:41.347Z,21.20
2018-12-29T00:23:11.098Z,21.00
2018-12-29T00:25:41.143Z,22.63
2018-12-29T00:28:10.978Z,23.47
2018-12-29T00:30:40.861Z,22.60
2018-12-29T00:33:10.782Z,24.50
2018-12-29T00:35:40.731Z,24.27
2018-12-29T00:38:10.514Z,22.77
2018-12-29T00:40:40.369Z,24.40
2018-12-29T00:43:10.243Z,24.70
2018-12-29T00:45:40.048Z,26.70
2018-12-29T00:48:09.803Z,23.83
2018-12-29T00:50:39.577Z,24.60
2018-12-29T00:53:09.564Z,25.37
2018-12-29T00:55:39.303Z,27.70
2018-12-29T00:58:09.273Z,26.00
2018-12-29T01:00:38.937Z,27.10
2018-12-29T01:03:08.661Z,25.93
2018-12-29T01:05:38.589Z,27.47
2018-12-29T01:08:08.486Z,27.00
2018-12-29T01:10:38.312Z,27.80
2018-12-29T01:13:08.269Z,27.60
2018-12-29T01:15:38.223Z,27.33
2018-12-29T01:18:07.953Z,28.57
2018-12-29T01:20:37.869Z,26.93
2018-12-29T01:23:07.705Z,28.30
2018-12-29T01:25:37.394Z,27.70
2018-12-29T01:28:07.262Z,30.57
2018-12-29T01:30:37.312Z,30.50
2018-12-29T01:33:07.252Z,28.87
2018-12-29T01:35:37.214Z,28.53
2018-12-29T01:38:06.855Z,30.00
2018-12-29T01:40:36.770Z,31.03
2018-12-29T01:43:07.905Z,29.93
2018-12-29T01:45:37.720Z,30.00
2018-12-29T01:48:07.600Z,33.13
2018-12-29T01:50:37.410Z,31.27
2018-12-29T01:53:07.184Z,31.53
2018-12-29T01:55:36.906Z,32.50
2018-12-29T01:58:06.776Z,45.92
2018-12-29T02:00:36.528Z,35.37
2018-12-29T02:03:06.300Z,34.27
2018-12-29T02:05:36.035Z,32.07
2018-12-29T02:08:05.922Z,31.37
2018-12-29T02:10:35.667Z,33.23
2018-12-29T02:13:05.496Z,30.40
2018-12-29T02:15:35.882Z,32.00
2018-12-29T02:18:05.632Z,31.13
2018-12-29T02:20:35.337Z,33.47
2018-12-29T02:23:05.318Z,32.90
2018-12-29T02:25:35.063Z,32.10
2018-12-29T02:28:04.877Z,32.33
2018-12-29T02:30:34.741Z,33.47
2018-12-29T02:33:04.819Z,32.20
2018-12-29T02:35:34.587Z,31.10
2018-12-29T02:38:04.469Z,32.23
2018-12-29T02:40:34.378Z,32.03
2018-12-29T02:43:04.521Z,31.10
2018-12-29T02:45:34.217Z,31.37
2018-12-29T02:48:04.227Z,32.47
2018-12-29T02:50:34.318Z,33.07
2018-12-29T02:53:04.208Z,31.63
2018-12-29T02:55:33.967Z,31.57
2018-12-29T02:58:03.906Z,31.20
2018-12-29T03:00:33.918Z,30.40
2018-12-29T03:03:03.825Z,31.13
2018-12-29T03:05:33.857Z,30.40
2018-12-29T03:08:03.823Z,33.27
2018-12-29T03:10:33.594Z,30.03
2018-12-29T03:13:03.301Z,30.60
2018-12-29T03:15:40.905Z,29.67
2018-12-29T03:18:06.236Z,28.33
2018-12-29T03:20:36.222Z,29.57
2018-12-29T03:23:06.177Z,27.90
2018-12-29T03:25:36.113Z,30.20
2018-12-29T03:28:05.747Z,29.33
2018-12-29T03:30:35.682Z,29.97
2018-12-29T03:33:05.823Z,29.97
2018-12-29T03:35:35.704Z,28.47
2018-12-29T03:38:05.607Z,29.93
2018-12-29T03:40:54.234Z,32.63
2018-12-29T03:43:24.102Z,31.93
2018-12-29T03:45:53.892Z,30.87
2018-12-29T03:48:23.660Z,31.53
2018-12-29T03:50:53.425Z,32.57
2018-12-29T03:53:23.340Z,39.35
2018-12-29T03:55:54.665Z,33.37
2018-12-29T03:58:24.602Z,32.03
2018-12-29T04:00:54.528Z,33.20
2018-12-29T04:03:24.325Z,32.70
2018-12-29T04:05:54.162Z,37.33
2018-12-29T04:08:24.231Z,32.77
2018-12-29T04:10:54.031Z,34.40
2018-12-29T04:13:23.865Z,31.90
2018-12-29T04:15:57.803Z,37.13
2018-12-29T04:18:25.344Z,34.57
2018-12-29T04:20:55.009Z,35.73
2018-12-29T04:23:24.886Z,32.50
2018-12-29T04:25:54.669Z,31.63
2018-12-29T04:28:24.658Z,35.83
2018-12-29T04:30:54.463Z,38.13
2018-12-29T04:33:24.315Z,36.97
2018-12-29T04:35:54.177Z,36.07
2018-12-29T04:38:24.116Z,35.70
2018-12-29T04:40:53.874Z,36.93
2018-12-29T04:43:23.738Z,36.67
2018-12-29T04:45:53.668Z,35.27
2018-12-29T04:48:23.735Z,36.17
2018-12-29T04:50:53.502Z,39.75
2018-12-29T04:53:23.411Z,32.70
2018-12-29T04:55:53.316Z,32.60
2018-12-29T04:58:23.200Z,34.00
2018-12-29T05:00:52.957Z,30.17
2018-12-29T05:03:22.814Z,35.23
2018-12-29T05:05:52.537Z,33.17
2018-12-29T05:08:22.280Z,32.27
2018-12-29T05:10:52.112Z,33.67
2018-12-29T05:13:21.983Z,36.87
2018-12-29T05:15:51.832Z,38.03
2018-12-29T05:18:21.771Z,33.13
2018-12-29T05:20:51.611Z,28.87
2018-12-29T05:23:21.393Z,28.73
2018-12-29T05:25:51.199Z,29.87
2018-12-29T05:28:21.044Z,28.97
2018-12-29T05:30:50.832Z,28.17
2018-12-29T05:33:20.520Z,29.93
2018-12-29T05:35:50.308Z,30.57
2018-12-29T05:38:20.165Z,30.87
2018-12-29T05:40:50.069Z,30.00
2018-12-29T05:43:21.142Z,29.27
2018-12-29T05:45:51.078Z,28.77
2018-12-29T05:48:20.954Z,31.97
2018-12-29T05:50:50.838Z,31.63
2018-12-29T05:53:20.632Z,31.23
2018-12-29T05:55:50.414Z,31.83
2018-12-29T05:58:20.381Z,31.43
2018-12-29T06:00:50.147Z,35.10
2018-12-29T06:03:19.933Z,33.77
2018-12-29T06:05:50.030Z,32.13
2018-12-29T06:08:19.908Z,33.20
2018-12-29T06:10:49.709Z,31.57
2018-12-29T06:13:19.763Z,30.50
2018-12-29T06:15:49.643Z,30.50
2018-12-29T06:18:19.441Z,30.47
2018-12-29T06:20:49.372Z,31.00
2018-12-29T06:23:19.157Z,30.30
2018-12-29T06:25:49.200Z,30.27
2018-12-29T06:28:19.069Z,30.97
2018-12-29T06:30:48.814Z,31.73
2018-12-29T06:33:18.738Z,33.40
2018-12-29T06:35:48.595Z,33.73
2018-12-29T06:38:19.800Z,34.57
2018-12-29T06:40:49.728Z,34.50
2018-12-29T06:43:19.695Z,35.20
2018-12-29T06:45:49.399Z,36.60
2018-12-29T06:48:19.271Z,38.27
2018-12-29T06:50:49.134Z,36.27
2018-12-29T06:53:18.926Z,38.03
2018-12-29T06:55:48.695Z,37.97
2018-12-29T06:58:18.667Z,39.50
2018-12-29T07:00:48.439Z,39.37
2018-12-29T07:03:18.251Z,40.23
2018-12-29T07:05:48.332Z,38.53
2018-12-29T07:08:18.032Z,39.63
2018-12-29T07:10:48.003Z,33.67
2018-12-29T07:13:18.024Z,35.43
2018-12-29T07:15:47.944Z,33.90
2018-12-29T07:18:17.785Z,35.37
2018-12-29T07:20:47.594Z,39.83
2018-12-29T07:23:17.261Z,32.93
2018-12-29T07:25:47.222Z,37.63
2018-12-29T07:28:17.065Z,38.80
2018-12-29T07:30:46.807Z,40.50
2018-12-29T07:33:16.674Z,43.63
2018-12-29T07:35:46.329Z,46.10
2018-12-29T07:38:16.154Z,39.43
2018-12-29T07:40:46.087Z,40.63
2018-12-29T07:43:15.984Z,32.43
2018-12-29T07:45:45.921Z,31.70
2018-12-29T07:48:16.298Z,29.37
2018-12-29T07:50:46.595Z,36.07
2018-12-29T07:53:16.628Z,38.67
2018-12-29T07:55:46.722Z,48.13
2018-12-29T07:58:16.581Z,36.77
2018-12-29T08:00:46.090Z,42.83
2018-12-29T08:03:15.639Z,28.90
2018-12-29T08:05:45.154Z,27.07
2018-12-29T08:08:14.659Z,26.57
2018-12-29T08:10:44.216Z,25.03
2018-12-29T08:13:13.737Z,23.83
2018-12-29T08:15:43.297Z,24.53
2018-12-29T08:18:12.859Z,23.03
2018-12-29T08:20:42.380Z,22.97
2018-12-29T08:23:13.220Z,23.47
2018-12-29T08:25:42.865Z,22.80
2018-12-29T08:28:12.400Z,23.17
2018-12-29T08:30:41.905Z,23.77
2018-12-29T08:33:11.864Z,21.93
2018-12-29T08:35:41.833Z,22.30
2018-12-29T08:38:11.507Z,23.63
2018-12-29T08:40:41.265Z,23.63
2018-12-29T08:43:10.770Z,23.67
2018-12-29T08:45:40.548Z,25.17
2018-12-29T08:48:10.206Z,25.50
2018-12-29T08:50:40.452Z,26.47
2018-12-29T08:53:10.295Z,23.27
2018-12-29T08:55:40.102Z,22.37
2018-12-29T08:58:09.926Z,23.10
2018-12-29T09:00:39.568Z,23.83
2018-12-29T09:03:09.280Z,33.27
2018-12-29T09:05:39.157Z,24.37
2018-12-29T09:08:08.895Z,24.03
2018-12-29T09:10:38.621Z,25.03
2018-12-29T09:13:09.691Z,26.77
2018-12-29T09:15:39.593Z,25.47
2018-12-29T09:18:09.482Z,26.97
2018-12-29T09:20:39.334Z,27.23
2018-12-29T09:23:09.125Z,28.53
2018-12-29T09:25:39.255Z,28.80
2018-12-29T09:28:09.205Z,41.00
2018-12-29T09:30:38.734Z,30.67
2018-12-29T09:33:08.386Z,55.67
2018-12-29T09:35:38.120Z,31.37
2018-12-29T09:38:07.999Z,27.77
2018-12-29T09:40:39.096Z,24.97
2018-12-29T09:43:08.859Z,32.97
2018-12-29T09:45:38.675Z,30.57
2018-12-29T09:48:08.454Z,43.73
2018-12-29T09:50:38.114Z,42.13
2018-12-29T09:53:07.908Z,29.80
2018-12-29T09:55:39.079Z,25.23
2018-12-29T09:58:08.866Z,26.37
2018-12-29T10:00:38.583Z,24.20
2018-12-29T10:03:08.316Z,28.20
2018-12-29T10:05:38.213Z,26.20
2018-12-29T10:08:08.111Z,29.33
2018-12-29T10:10:38.875Z,21.10
2018-12-29T10:13:08.600Z,17.50
2018-12-29T10:15:38.474Z,19.80
2018-12-29T10:18:08.235Z,19.27
2018-12-29T10:20:38.234Z,18.93
2018-12-29T10:23:08.220Z,20.27
2018-12-29T10:25:37.962Z,19.43
2018-12-29T10:28:07.787Z,20.03
2018-12-29T10:30:37.562Z,6.07
2018-12-29T10:33:07.331Z,1.93
2018-12-29T10:35:37.398Z,1.43
2018-12-29T10:38:07.274Z,1.90
2018-12-29T10:40:37.134Z,1.60
2018-12-29T10:43:07.038Z,1.70
2018-12-29T10:45:36.874Z,1.43
2018-12-29T10:48:06.891Z,1.30
2018-12-29T10:50:36.641Z,1.30
2018-12-29T10:53:06.321Z,1.30
2018-12-29T10:55:36.130Z,1.43
2018-12-29T10:58:05.793Z,1.43
2018-12-29T11:00:35.652Z,1.60
2018-12-29T11:03:05.534Z,1.67
2018-12-29T11:05:35.277Z,1.20
2018-12-29T11:08:05.324Z,1.43
2018-12-29T11:10:35.283Z,1.30
2018-12-29T11:13:05.039Z,1.50
2018-12-29T11:15:34.917Z,1.60
2018-12-29T11:18:04.807Z,1.63
2018-12-29T11:20:34.960Z,1.50
2018-12-29T11:23:04.900Z,1.40
2018-12-29T11:25:34.728Z,1.37
2018-12-29T11:28:04.763Z,1.70
2018-12-29T11:30:34.639Z,2.00
2018-12-29T11:33:04.474Z,2.10
2018-12-29T11:35:34.302Z,2.07
2018-12-29T11:38:04.041Z,1.97
2018-12-29T11:40:33.709Z,1.47
2018-12-29T11:43:03.421Z,2.13
2018-12-29T11:45:34.487Z,2.13
2018-12-29T11:48:04.281Z,1.80
2018-12-29T11:50:33.994Z,2.00
2018-12-29T11:53:05.217Z,2.10
2018-12-29T11:55:34.843Z,1.83
2018-12-29T11:58:04.956Z,2.33
2018-12-29T12:00:34.731Z,2.07
2018-12-29T12:03:04.487Z,1.90
2018-12-29T12:05:34.096Z,2.00
2018-12-29T12:08:03.865Z,2.30
2018-12-29T12:10:33.658Z,2.30
2018-12-29T12:13:03.570Z,2.30
2018-12-29T12:15:33.490Z,2.33
2018-12-29T12:18:05.740Z,2.50
2018-12-29T12:20:35.456Z,3.97
2018-12-29T12:23:06.710Z,3.73
2018-12-29T12:25:36.560Z,3.83
2018-12-29T12:28:06.755Z,3.90
2018-12-29T12:30:36.737Z,4.23
2018-12-29T12:33:06.962Z,2.90
2018-12-29T12:35:36.716Z,3.13
2018-12-29T12:38:07.312Z,3.03
2018-12-29T12:40:37.343Z,3.60
2018-12-29T12:43:07.595Z,3.30
2018-12-29T12:45:39.307Z,3.20
2018-12-29T12:48:09.095Z,3.70
2018-12-29T12:50:38.770Z,4.00
2018-12-29T12:53:08.628Z,3.70
2018-12-29T12:55:38.709Z,4.27
2018-12-29T12:58:08.937Z,5.10
2018-12-29T13:00:38.892Z,4.30
2018-12-29T13:03:09.037Z,4.83
2018-12-29T13:05:38.692Z,6.20
2018-12-29T13:08:10.037Z,6.90
2018-12-29T13:10:39.952Z,7.83
2018-12-29T13:13:09.758Z,8.03
2018-12-29T13:15:39.730Z,10.30
2018-12-29T13:18:13.148Z,9.63
2018-12-29T13:20:41.287Z,10.60
2018-12-29T13:23:11.038Z,8.63
2018-12-29T13:25:40.970Z,8.07
2018-12-29T13:28:11.779Z,7.87
2018-12-29T13:30:42.777Z,10.68
2018-12-29T13:33:12.560Z,7.93
2018-12-29T13:35:42.392Z,7.40
2018-12-29T13:38:12.362Z,6.33
2018-12-29T13:40:42.527Z,5.50
2018-12-29T13:43:12.592Z,6.13
2018-12-29T13:45:42.239Z,5.77
2018-12-29T13:48:12.074Z,7.03
2018-12-29T13:50:41.937Z,7.13
2018-12-29T13:53:11.896Z,7.43
2018-12-29T13:55:41.738Z,9.63
2018-12-29T13:58:12.671Z,7.40
2018-12-29T14:00:42.466Z,6.23
2018-12-29T14:03:12.507Z,6.37
2018-12-29T14:05:42.468Z,5.60
2018-12-29T14:08:12.112Z,5.50
2018-12-29T14:10:41.834Z,6.90
2018-12-29T14:13:11.610Z,7.23
2018-12-29T14:15:42.530Z,7.87
2018-12-29T14:18:12.228Z,9.00
2018-12-29T14:20:42.006Z,8.90
2018-12-29T14:23:11.883Z,9.43
2018-12-29T14:25:41.781Z,8.27
2018-12-29T14:28:11.742Z,8.97
2018-12-29T14:30:41.679Z,10.50
2018-12-29T14:33:11.685Z,11.40
2018-12-29T14:35:41.434Z,10.70
2018-12-29T14:38:11.591Z,11.30
2018-12-29T14:40:41.469Z,12.67
2018-12-29T14:43:11.320Z,10.87
2018-12-29T14:45:41.097Z,13.00
2018-12-29T14:48:10.981Z,13.70
2018-12-29T14:50:40.724Z,12.57
2018-12-29T14:53:10.692Z,12.40
2018-12-29T14:55:40.520Z,12.10
2018-12-29T14:58:10.395Z,11.83
2018-12-29T15:00:40.177Z,11.13
2018-12-29T15:03:09.993Z,11.10
2018-12-29T15:05:40.072Z,10.23
2018-12-29T15:08:12.035Z,10.77
2018-12-29T15:10:42.060Z,10.83
2018-12-29T15:13:12.044Z,12.00
2018-12-29T15:15:41.905Z,11.70
2018-12-29T15:18:11.819Z,13.13
2018-12-29T15:20:41.877Z,14.80
2018-12-29T15:23:11.852Z,13.03
2018-12-29T15:25:41.681Z,10.80
2018-12-29T15:28:11.733Z,12.57
2018-12-29T15:30:41.711Z,12.23
2018-12-29T15:33:11.647Z,11.37
2018-12-29T15:35:41.811Z,11.53
2018-12-29T15:38:11.658Z,11.90
2018-12-29T15:40:41.524Z,11.70
2018-12-29T15:43:11.310Z,12.50
2018-12-29T15:45:41.418Z,11.53
2018-12-29T15:48:12.703Z,11.43
2018-12-29T15:50:42.635Z,11.93
2018-12-29T15:53:12.655Z,13.03
2018-12-29T15:55:44.030Z,14.95
2018-12-29T15:58:14.277Z,15.43
2018-12-29T16:00:44.223Z,11.40
2018-12-29T16:03:15.696Z,13.33
2018-12-29T16:05:45.556Z,13.33
2018-12-29T16:08:15.435Z,12.53
2018-12-29T16:10:45.351Z,12.77
2018-12-29T16:13:15.166Z,11.80
2018-12-29T16:15:45.115Z,11.50
2018-12-29T16:18:16.218Z,11.53
2018-12-29T16:20:53.117Z,12.83
2018-12-29T16:23:17.683Z,11.57
2018-12-29T16:25:48.776Z,11.40
2018-12-29T16:28:18.541Z,11.03
2018-12-29T16:30:48.346Z,10.80
2018-12-29T16:33:18.168Z,10.93
2018-12-29T16:35:48.258Z,11.30
2018-12-29T16:38:18.126Z,11.17
2018-12-29T16:40:47.925Z,12.43
2018-12-29T16:43:17.892Z,12.83
2018-12-29T16:45:48.354Z,13.93
2018-12-29T16:48:18.170Z,13.23
2018-12-29T16:50:49.280Z,12.63
2018-12-29T16:53:19.355Z,12.00
2018-12-29T16:55:49.170Z,10.80
2018-12-29T16:58:19.436Z,11.97
2018-12-29T17:00:49.407Z,11.57
2018-12-29T17:03:19.257Z,11.30
2018-12-29T17:05:50.443Z,11.23
2018-12-29T17:08:20.164Z,11.77
2018-12-29T17:10:50.240Z,12.90
2018-12-29T17:13:20.320Z,12.10
2018-12-29T17:15:50.114Z,11.23
2018-12-29T17:18:19.889Z,11.10
2018-12-29T17:20:49.535Z,11.47
2018-12-29T17:23:19.265Z,10.10
2018-12-29T17:25:49.122Z,10.57
2018-12-29T17:28:19.017Z,10.17
2018-12-29T17:30:48.919Z,9.63
2018-12-29T17:33:18.876Z,9.73
2018-12-29T17:35:48.537Z,10.60
2018-12-29T17:38:18.545Z,10.00
2018-12-29T17:40:48.413Z,10.73
2018-12-29T17:43:18.202Z,10.83
2018-12-29T17:45:48.012Z,11.40
2018-12-29T17:48:17.950Z,10.47
2018-12-29T17:50:47.645Z,10.57
2018-12-29T17:53:17.761Z,11.70
2018-12-29T17:55:47.607Z,11.60
2018-12-29T17:58:17.387Z,11.13
2018-12-29T18:00:47.411Z,11.50
2018-12-29T18:03:18.554Z,13.47
2018-12-29T18:05:48.560Z,11.97
2018-12-29T18:08:18.401Z,13.00
2018-12-29T18:10:48.241Z,13.03
2018-12-29T18:13:18.326Z,12.80
2018-12-29T18:15:48.181Z,13.73
2018-12-29T18:18:19.282Z,13.10
2018-12-29T18:20:49.095Z,11.97
2018-12-29T18:23:18.894Z,11.70
2018-12-29T18:25:48.782Z,10.87
2018-12-29T18:28:18.536Z,10.87
2018-12-29T18:30:48.347Z,11.83
2018-12-29T18:33:18.509Z,12.13
2018-12-29T18:35:48.362Z,12.07
2018-12-29T18:38:18.366Z,12.13
2018-12-29T18:40:48.628Z,11.20
2018-12-29T18:43:18.557Z,11.60
2018-12-29T18:45:48.460Z,11.60
2018-12-29T18:48:18.340Z,11.67
2018-12-29T18:50:48.419Z,12.57
2018-12-29T18:53:18.211Z,10.80
2018-12-29T18:55:49.628Z,12.33
2018-12-29T18:58:19.476Z,11.47
2018-12-29T19:00:49.380Z,10.90
2018-12-29T19:03:19.377Z,11.53
2018-12-29T19:05:49.162Z,10.67
2018-12-29T19:08:18.959Z,10.50
2018-12-29T19:10:49.228Z,10.93
2018-12-29T19:13:19.711Z,10.97
2018-12-29T19:15:49.914Z,12.13
2018-12-29T19:18:19.897Z,11.67
2018-12-29T19:20:51.586Z,11.47
2018-12-29T19:23:21.410Z,11.90
2018-12-29T19:25:51.582Z,11.10
2018-12-29T19:28:21.563Z,11.23
2018-12-29T19:30:51.422Z,10.33
2018-12-29T19:33:21.579Z,11.43
2018-12-29T19:35:51.859Z,11.60
2018-12-29T19:38:21.985Z,11.80
2018-12-29T19:40:51.648Z,11.80
2018-12-29T19:43:21.791Z,15.00
2018-12-29T19:45:51.634Z,15.73
2018-12-29T19:48:21.378Z,17.43
2018-12-29T19:50:51.400Z,17.93
2018-12-29T19:53:21.810Z,20.37
2018-12-29T19:55:51.644Z,21.13
2018-12-29T19:58:21.424Z,12.17
2018-12-29T20:00:51.270Z,16.97
2018-12-29T20:03:21.096Z,15.63
2018-12-29T20:05:52.492Z,15.07
2018-12-29T20:08:22.374Z,15.13
2018-12-29T20:10:52.498Z,15.53
2018-12-29T20:13:22.482Z,15.63
2018-12-29T20:15:52.586Z,16.70
2018-12-29T20:18:22.277Z,24.23
2018-12-29T20:20:52.091Z,18.40
2018-12-29T20:23:21.757Z,17.13
2018-12-29T20:25:51.664Z,20.23
2018-12-29T20:28:21.632Z,18.07
2018-12-29T20:30:52.750Z,14.77
2018-12-29T20:33:22.660Z,19.97
2018-12-29T20:35:52.477Z,15.60
2018-12-29T20:38:23.416Z,14.37
2018-12-29T20:40:53.118Z,23.27
2018-12-29T20:43:22.932Z,18.43
2018-12-29T20:45:52.916Z,16.30
2018-12-29T20:48:22.650Z,15.60
2018-12-29T20:50:52.470Z,19.00
2018-12-29T20:53:22.318Z,22.83
2018-12-29T20:55:52.096Z,18.03
2018-12-29T20:58:22.109Z,23.37
2018-12-29T21:00:52.006Z,19.67
2018-12-29T21:03:21.741Z,16.73
2018-12-29T21:05:51.569Z,15.70
2018-12-29T21:08:21.416Z,22.27
2018-12-29T21:10:51.583Z,25.85
2018-12-29T21:13:21.322Z,25.63
2018-12-29T21:15:52.388Z,24.20
2018-12-29T21:18:22.299Z,23.77
2018-12-29T21:20:52.070Z,21.87
2018-12-29T21:23:22.256Z,16.63
2018-12-29T21:25:52.186Z,17.77
2018-12-29T21:28:21.934Z,14.43
2018-12-29T21:30:51.973Z,20.73
2018-12-29T21:33:21.944Z,23.40
2018-12-29T21:35:51.988Z,19.63
2018-12-29T21:38:21.900Z,19.70
2018-12-29T21:40:52.098Z,19.30
2018-12-29T21:43:22.021Z,20.77
2018-12-29T21:45:51.971Z,19.60
2018-12-29T21:48:22.022Z,16.63
2018-12-29T21:50:52.109Z,15.30
2018-12-29T21:53:21.818Z,16.53
2018-12-29T21:55:51.776Z,14.03
2018-12-29T21:58:21.588Z,14.37
2018-12-29T22:00:51.673Z,18.17
2018-12-29T22:03:21.373Z,16.03
2018-12-29T22:05:51.236Z,17.23
2018-12-29T22:08:21.268Z,17.97
2018-12-29T22:10:51.045Z,15.70
2018-12-29T22:13:21.071Z,15.93
2018-12-29T22:15:51.099Z,15.43
2018-12-29T22:18:21.511Z,15.77
2018-12-29T22:20:51.208Z,13.33
2018-12-29T22:23:21.065Z,14.70
2018-12-29T22:25:51.127Z,13.93
2018-12-29T22:28:21.016Z,15.07
2018-12-29T22:30:50.893Z,15.83
2018-12-29T22:33:21.441Z,14.83
2018-12-29T22:35:51.373Z,14.70
2018-12-29T22:38:21.673Z,14.90
2018-12-29T22:40:51.564Z,15.80
2018-12-29T22:43:21.457Z,16.33
2018-12-29T22:45:51.400Z,16.23
2018-12-29T22:48:21.247Z,16.43
2018-12-29T22:50:51.478Z,17.93
2018-12-29T22:53:21.247Z,17.57
2018-12-29T22:55:51.189Z,18.20
2018-12-29T22:58:21.022Z,17.50
2018-12-29T23:00:51.014Z,15.03
2018-12-29T23:03:20.832Z,14.87
2018-12-29T23:05:50.572Z,16.83
2018-12-29T23:08:20.429Z,13.73
2018-12-29T23:10:50.191Z,13.13
2018-12-29T23:13:19.957Z,12.83
2018-12-29T23:15:49.897Z,12.50
2018-12-29T23:18:19.869Z,13.73
2018-12-29T23:20:50.349Z,14.20
2018-12-29T23:23:20.152Z,14.33
2018-12-29T23:25:50.414Z,14.97
2018-12-29T23:28:20.376Z,14.73
2018-12-29T23:30:50.188Z,16.03
2018-12-29T23:33:19.983Z,15.63
2018-12-29T23:35:49.930Z,16.73
2018-12-29T23:38:20.045Z,16.13
2018-12-29T23:40:50.135Z,17.13
2018-12-29T23:43:19.812Z,17.30
2018-12-29T23:45:50.133Z,16.53
2018-12-29T23:48:19.982Z,16.93
2018-12-29T23:50:49.742Z,16.20
2018-12-29T23:53:19.660Z,17.20
2018-12-29T23:55:49.721Z,17.97
2018-12-29T23:58:19.514Z,17.80
